createdAt,value
2023-01-17T00:02:57.698Z,8.72
2023-01-17T00:10:00.209Z,8.54
2023-01-17T00:17:02.138Z,8.59
2023-01-17T00:24:23.005Z,8.48
2023-01-17T00:31:24.803Z,8.40
2023-01-17T00:38:28.021Z,8.43
2023-01-17T00:45:48.662Z,8.34
2023-01-17T00:53:09.327Z,8.20
2023-01-17T01:00:30.269Z,8.27
2023-01-17T01:07:50.724Z,8.32
2023-01-17T01:15:10.981Z,8.19
2023-01-17T01:22:31.324Z,8.12
2023-01-17T01:29:51.822Z,8.05
2023-01-17T01:36:53.468Z,8.20
2023-01-17T01:43:55.770Z,8.20
2023-01-17T01:50:57.508Z,8.18
2023-01-17T01:58:02.282Z,8.11
2023-01-17T02:05:04.883Z,8.18
2023-01-17T02:12:06.976Z,8.22
2023-01-17T02:19:23.870Z,8.17
2023-01-17T02:26:36.763Z,8.19
2023-01-17T02:33:39.382Z,8.00
2023-01-17T02:40:49.575Z,8.16
2023-01-17T02:47:51.626Z,7.96
2023-01-17T02:55:44.195Z,8.07
2023-01-17T03:02:52.795Z,8.39
2023-01-17T03:10:00.033Z,8.28
2023-01-17T03:17:01.815Z,8.50
2023-01-17T03:24:03.790Z,8.26
2023-01-17T03:31:05.876Z,8.47
2023-01-17T03:38:07.654Z,8.47
2023-01-17T03:45:09.672Z,8.62
2023-01-17T03:52:11.273Z,8.51
2023-01-17T03:59:13.442Z,8.83
2023-01-17T04:06:15.306Z,8.63
2023-01-17T04:13:17.038Z,8.55
2023-01-17T04:20:31.067Z,8.84
2023-01-17T04:27:32.666Z,8.62
2023-01-17T04:34:34.300Z,8.81
2023-01-17T04:41:36.038Z,8.90
2023-01-17T04:48:38.238Z,8.95
2023-01-17T04:55:40.241Z,8.77
2023-01-17T05:02:42.170Z,9.00
2023-01-17T05:09:43.922Z,9.03
2023-01-17T05:16:45.497Z,8.89
2023-01-17T05:23:47.169Z,9.16
2023-01-17T05:30:48.858Z,8.98
2023-01-17T05:37:50.617Z,8.96
2023-01-17T05:44:52.237Z,9.11
2023-01-17T05:51:54.987Z,9.08
2023-01-17T05:58:56.760Z,8.99
2023-01-17T06:05:58.414Z,9.18
2023-01-17T06:13:12.601Z,9.35
2023-01-17T06:20:14.254Z,9.18
2023-01-17T06:27:15.998Z,9.06
2023-01-17T06:34:17.623Z,9.18
2023-01-17T06:41:19.305Z,9.02
2023-01-17T06:48:20.921Z,9.15
2023-01-17T06:55:22.710Z,9.11
2023-01-17T07:02:24.303Z,9.07
2023-01-17T07:09:25.961Z,9.05
2023-01-17T07:16:27.857Z,9.12
2023-01-17T07:23:29.502Z,8.97
2023-01-17T07:30:31.192Z,9.14
2023-01-17T07:37:32.821Z,8.94
2023-01-17T07:44:34.405Z,8.84
2023-01-17T07:51:36.090Z,8.71
2023-01-17T07:58:37.817Z,9.24
2023-01-17T08:05:40.423Z,9.12
2023-01-17T08:12:42.158Z,9.08
2023-01-17T08:19:44.768Z,9.22
2023-01-17T08:26:46.454Z,9.20
2023-01-17T08:33:48.140Z,9.22
2023-01-17T08:40:50.669Z,9.01
2023-01-17T08:47:52.543Z,9.25
2023-01-17T08:54:54.396Z,9.19
2023-01-17T09:01:58.180Z,9.43
2023-01-17T09:09:00.040Z,9.35
2023-01-17T09:16:02.059Z,9.44
2023-01-17T09:23:03.935Z,9.16
2023-01-17T09:30:06.027Z,9.45
2023-01-17T09:37:07.660Z,9.59
2023-01-17T09:44:25.349Z,9.43
2023-01-17T09:51:27.035Z,9.26
2023-01-17T09:58:46.196Z,9.40
2023-01-17T10:05:47.699Z,9.57
2023-01-17T10:13:04.171Z,9.52
2023-01-17T10:20:08.883Z,9.64
2023-01-17T10:27:18.438Z,9.44
2023-01-17T10:34:23.481Z,9.59
2023-01-17T10:41:37.038Z,9.53
2023-01-17T10:48:39.968Z,9.41
2023-01-17T10:55:54.018Z,9.30
2023-01-17T11:02:55.933Z,9.57
2023-01-17T11:09:58.182Z,9.36
2023-01-17T11:17:04.402Z,9.52
2023-01-17T11:24:11.168Z,9.76
2023-01-17T11:31:16.671Z,9.90
2023-01-17T11:38:19.668Z,9.87
2023-01-17T11:45:24.850Z,9.44
2023-01-17T11:52:35.528Z,9.06
2023-01-17T11:59:39.896Z,8.78
2023-01-17T12:07:09.902Z,8.52
2023-01-17T12:14:29.310Z,8.85
2023-01-17T12:21:52.218Z,9.22
2023-01-17T12:29:16.472Z,9.16
2023-01-17T12:36:49.663Z,9.08
2023-01-17T12:43:57.603Z,9.29
2023-01-17T12:51:14.188Z,9.14
2023-01-17T12:58:26.765Z,9.31
2023-01-17T13:05:41.917Z,9.53
2023-01-17T13:12:43.564Z,9.13
2023-01-17T13:19:57.245Z,9.32
2023-01-17T13:27:07.276Z,9.49
2023-01-17T13:34:49.186Z,9.29
2023-01-17T13:41:54.945Z,9.42
2023-01-17T13:49:20.760Z,9.24
2023-01-17T13:56:22.363Z,9.15
2023-01-17T14:03:50.316Z,9.16
2023-01-17T14:10:54.780Z,9.24
2023-01-17T14:18:00.708Z,9.12
2023-01-17T14:25:17.482Z,9.17
2023-01-17T14:32:21.167Z,9.18
2023-01-17T14:39:22.834Z,9.30
2023-01-17T14:46:26.723Z,9.08
2023-01-17T14:53:29.489Z,9.16
2023-01-17T15:00:33.566Z,9.05
2023-01-17T15:07:36.243Z,9.20
2023-01-17T15:14:39.049Z,9.14
2023-01-17T15:21:43.137Z,9.12
2023-01-17T15:28:45.037Z,8.91
2023-01-17T15:35:46.639Z,8.91
2023-01-17T15:43:01.321Z,9.00
2023-01-17T15:50:21.153Z,8.90
2023-01-17T15:57:24.022Z,8.62
2023-01-17T16:04:33.163Z,8.60
2023-01-17T16:11:34.947Z,8.54
2023-01-17T16:18:36.898Z,8.63
2023-01-17T16:25:38.869Z,8.31
2023-01-17T16:32:43.267Z,8.45
2023-01-17T16:39:46.306Z,8.28
2023-01-17T16:46:47.955Z,8.18
2023-01-17T16:53:49.996Z,8.10
2023-01-17T17:00:51.810Z,8.20
2023-01-17T17:07:53.864Z,8.00
2023-01-17T17:14:55.862Z,8.07
2023-01-17T17:21:58.517Z,7.95
2023-01-17T17:29:00.252Z,7.92
2023-01-17T17:36:06.260Z,7.76
2023-01-17T17:43:07.921Z,7.73
2023-01-17T17:50:10.166Z,7.72
2023-01-17T17:57:12.060Z,7.71
2023-01-17T18:04:14.199Z,7.71
2023-01-17T18:11:18.671Z,7.79
2023-01-17T18:18:20.711Z,7.61
2023-01-17T18:25:22.397Z,7.66
2023-01-17T18:32:24.278Z,7.59
2023-01-17T18:39:27.345Z,7.41
2023-01-17T18:46:29.215Z,7.40
2023-01-17T18:53:31.493Z,7.34
2023-01-17T19:00:33.404Z,7.44
2023-01-17T19:07:35.618Z,7.30
2023-01-17T19:14:37.291Z,7.20
2023-01-17T19:21:39.115Z,7.23
2023-01-17T19:28:41.679Z,7.24
2023-01-17T19:35:43.374Z,7.22
2023-01-17T19:42:45.152Z,7.17
2023-01-17T19:49:46.884Z,7.09
2023-01-17T19:56:49.373Z,7.01
2023-01-17T20:03:51.153Z,7.05
2023-01-17T20:10:53.083Z,7.01
2023-01-17T20:17:55.114Z,6.97
2023-01-17T20:24:57.005Z,6.83
2023-01-17T20:31:58.693Z,6.66
2023-01-17T20:39:02.743Z,6.58
2023-01-17T20:46:05.530Z,6.41
2023-01-17T20:53:07.581Z,6.39
2023-01-17T21:00:09.914Z,6.36
2023-01-17T21:07:13.772Z,6.39
2023-01-17T21:14:15.625Z,6.19
2023-01-17T21:21:19.272Z,6.31
2023-01-17T21:28:21.623Z,6.34
2023-01-17T21:35:23.715Z,6.25
2023-01-17T21:42:26.401Z,6.26
2023-01-17T21:49:29.051Z,6.32
2023-01-17T21:56:49.485Z,6.29
2023-01-17T22:03:52.939Z,6.28
2023-01-17T22:10:54.573Z,6.24
2023-01-17T22:17:57.018Z,6.13
2023-01-17T22:24:58.870Z,6.17
2023-01-17T22:32:00.532Z,6.03
2023-01-17T22:39:02.219Z,5.91
2023-01-17T22:46:07.715Z,5.72
2023-01-17T22:53:10.318Z,5.68
2023-01-17T23:00:14.489Z,5.63
2023-01-17T23:07:16.317Z,5.75
2023-01-17T23:14:53.046Z,5.92
2023-01-17T23:22:17.242Z,5.64
2023-01-17T23:29:19.275Z,5.38
2023-01-17T23:36:20.961Z,5.36
2023-01-17T23:43:25.713Z,5.37
2023-01-17T23:50:27.432Z,5.37
2023-01-17T23:57:29.026Z,5.25
